Time;durP1;ratioP1;P1;durP2;ratioP2;P2;SDS_P1;SDS_P2;PMS_P1;PMS_P2;Temp;Humidity;BMP_temperature;BMP_pressure;BME280_temperature;BME280_humidity;BME280_pressure;Samples;Min_cycle;Max_cycle;Signal;HPM_P1;HPM_P2
2021/05/28 00:01:44;;;;;;;7.33;6.10;;;;;;;18.03;95.25;98902.84;1870619;76;22161;-64
2021/05/28 00:04:19;;;;;;;9.10;6.97;;;;;;;17.95;95.27;98901.69;1870634;76;22567;-62
2021/05/28 00:06:55;;;;;;;11.83;8.03;;;;;;;17.84;95.57;98900.59;1870514;76;20462;-63
2021/05/28 00:09:31;;;;;;;7.75;6.10;;;;;;;17.74;95.97;98899.03;1870760;76;22149;-62
2021/05/28 00:12:26;;;;;;;8.45;6.53;;;;;;;17.66;96.32;98895.26;1857825;75;27970;-61
2021/05/28 00:15:00;;;;;;;8.03;6.58;;;;;;;17.65;96.71;98888.30;1870642;76;22116;-62
2021/05/28 00:17:36;;;;;;;11.80;7.55;;;;;;;17.64;96.79;98892.27;1870641;76;22145;-64
2021/05/28 00:20:14;;;;;;;7.55;5.83;;;;;;;17.56;97.05;98893.26;1870488;76;20212;-64
2021/05/28 00:22:48;;;;;;;7.78;5.67;;;;;;;17.55;97.39;98895.46;1850786;77;22156;-63
2021/05/28 00:25:23;;;;;;;8.13;5.47;;;;;;;17.56;97.64;98891.09;1889887;76;22559;-63
2021/05/28 00:27:58;;;;;;;9.40;6.08;;;;;;;17.55;97.74;98888.94;1870567;76;22105;-62
2021/05/28 00:30:33;;;;;;;9.43;6.60;;;;;;;17.56;97.91;98891.95;1870636;76;22141;-62
2021/05/28 00:33:07;;;;;;;11.65;6.55;;;;;;;17.54;97.92;98889.81;1889883;76;22542;-63
2021/05/28 00:35:42;;;;;;;8.75;5.75;;;;;;;17.48;98.04;98883.86;1870616;76;22116;-63
2021/05/28 00:38:17;;;;;;;7.55;5.72;;;;;;;17.43;98.23;98880.02;1870568;76;22105;-63
2021/05/28 00:40:51;;;;;;;8.08;6.85;;;;;;;17.38;98.38;98874.03;1870649;76;22133;-65
2021/05/28 00:43:37;;;;;;;7.35;6.40;;;;;;;17.27;98.64;98877.25;1827786;78;21540;-62
2021/05/28 00:46:12;;;;;;;7.60;6.03;;;;;;;17.23;98.94;98873.00;1870657;76;22145;-62
2021/05/28 00:48:54;;;;;;;8.70;5.80;;;;;;;17.25;99.29;98873.81;1869673;76;22182;-62
2021/05/28 00:51:29;;;;;;;7.25;5.72;;;;;;;17.24;99.41;98869.49;1873873;76;27938;-64
2021/05/28 00:54:15;;;;;;;8.20;5.65;;;;;;;17.26;99.57;98869.03;1832286;77;21102;-63
2021/05/28 00:56:51;;;;;;;8.48;5.90;;;;;;;17.28;99.52;98858.98;1854591;76;27924;-63
2021/05/28 00:59:26;;;;;;;10.20;5.90;;;;;;;17.30;99.67;98852.42;1889923;76;22151;-64
2021/05/28 01:02:00;;;;;;;6.72;5.92;;;;;;;17.27;99.62;98853.78;1870642;76;22137;-63
2021/05/28 01:04:36;;;;;;;7.50;5.95;;;;;;;17.21;99.77;98851.30;1854617;76;27884;-64
2021/05/28 01:07:11;;;;;;;6.90;5.05;;;;;;;17.24;99.94;98855.15;1889908;76;22538;-63
2021/05/28 01:09:45;;;;;;;9.50;5.60;;;;;;;17.24;100.00;98856.45;1870724;76;22153;-66
2021/05/28 01:12:20;;;;;;;9.18;6.20;;;;;;;17.26;100.00;98855.98;1870613;76;22141;-64
2021/05/28 01:14:55;;;;;;;9.03;6.42;;;;;;;17.29;100.00;98850.71;1870517;76;22586;-63
2021/05/28 01:17:30;;;;;;;8.38;6.50;;;;;;;17.30;100.00;98857.63;1854567;76;27925;-63
2021/05/28 01:20:09;;;;;;;7.33;5.92;;;;;;;17.38;100.00;98858.37;1889915;76;22167;-63
2021/05/28 01:22:44;;;;;;;8.68;6.45;;;;;;;17.44;100.00;98862.62;1889903;76;22143;-65
2021/05/28 01:25:21;;;;;;;8.65;6.17;;;;;;;17.46;100.00;98861.70;1854663;76;27947;-62
2021/05/28 01:27:57;;;;;;;10.53;6.50;;;;;;;17.55;100.00;98860.66;1870453;76;22531;-63
2021/05/28 01:30:32;;;;;;;7.28;5.45;;;;;;;17.56;99.84;98856.73;1870629;76;22141;-63
2021/05/28 01:33:06;;;;;;;9.68;6.50;;;;;;;17.56;99.84;98863.25;1870624;76;22140;-65
2021/05/28 01:35:41;;;;;;;8.60;5.28;;;;;;;17.55;99.53;98865.87;1870574;76;22564;-66
2021/05/28 01:38:16;;;;;;;13.95;6.62;;;;;;;17.52;99.44;98860.27;1889922;76;22132;-63
2021/05/28 01:40:57;;;;;;;7.70;5.12;;;;;;;17.45;99.21;98861.72;1889878;76;22152;-63
2021/05/28 01:43:32;;;;;;;7.37;5.12;;;;;;;17.35;99.09;98858.41;1889904;76;22136;-62
2021/05/28 01:46:20;;;;;;;8.05;5.70;;;;;;;17.29;99.24;98859.84;1791341;80;21141;-62
2021/05/28 01:49:16;;;;;;;9.33;5.67;;;;;;;17.33;99.34;98854.55;1862764;75;22185;-63
2021/05/28 01:51:52;;;;;;;8.10;4.95;;;;;;;17.32;99.21;98857.17;1854731;76;27893;-63
2021/05/28 01:54:39;;;;;;;8.38;5.30;;;;;;;17.31;99.27;98855.46;1827751;77;21544;-62
2021/05/28 01:57:14;;;;;;;7.22;5.33;;;;;;;17.33;98.86;98854.55;1854754;76;28339;-63
2021/05/28 01:59:49;;;;;;;7.53;5.78;;;;;;;17.39;99.08;98851.41;1870598;76;22121;-63
2021/05/28 02:02:24;;;;;;;8.08;5.40;;;;;;;17.37;98.86;98863.16;1854553;76;27869;-63
2021/05/28 02:04:58;;;;;;;7.03;5.20;;;;;;;17.36;98.89;98859.70;1860942;76;22137;-62
2021/05/28 02:07:35;;;;;;;7.80;5.30;;;;;;;17.32;98.89;98856.72;1842768;76;22224;-60
2021/05/28 02:10:21;;;;;;;7.08;5.28;;;;;;;17.27;99.14;98868.13;1808375;77;21134;-61
2021/05/28 02:12:58;;;;;;;7.87;5.42;;;;;;;17.29;99.04;98861.14;1838206;76;28038;-62
2021/05/28 02:15:34;;;;;;;9.85;5.67;;;;;;;17.34;99.04;98861.92;1855669;76;22183;-64
2021/05/28 02:18:10;;;;;;;7.50;5.50;;;;;;;17.30;98.92;98861.55;1870594;76;22454;-63
2021/05/28 02:20:45;;;;;;;7.05;5.83;;;;;;;17.25;99.01;98860.77;1889896;76;22143;-62
2021/05/28 02:23:20;;;;;;;8.98;6.10;;;;;;;17.21;99.13;98859.98;1858181;76;22144;-62
2021/05/28 02:25:55;;;;;;;7.28;5.35;;;;;;;17.19;99.14;98855.67;1870518;76;22141;-62
2021/05/28 02:28:30;;;;;;;7.12;5.67;;;;;;;17.14;99.24;98862.27;1851263;76;28429;-65
2021/05/28 02:31:05;;;;;;;7.10;5.12;;;;;;;17.18;99.37;98851.36;1869278;76;22156;-63
2021/05/28 02:33:40;;;;;;;8.45;5.60;;;;;;;17.16;99.32;98855.28;1840925;76;22151;-62
2021/05/28 02:36:20;;;;;;;8.58;5.78;;;;;;;17.13;99.35;98851.44;1851580;76;22257;-62
2021/05/28 02:38:55;;;;;;;10.48;6.37;;;;;;;17.13;99.44;98849.68;1854373;76;22168;-62
2021/05/28 02:41:31;;;;;;;8.00;6.00;;;;;;;17.13;99.54;98847.07;1837583;76;28371;-63
2021/05/28 02:44:06;;;;;;;6.58;5.30;;;;;;;17.21;99.62;98838.26;1889979;76;22172;-62
2021/05/28 02:46:41;;;;;;;6.37;5.33;;;;;;;17.23;99.40;98837.34;1889949;76;22550;-60
2021/05/28 02:49:16;;;;;;;9.30;6.15;;;;;;;17.22;99.37;98835.60;1854779;76;27946;-64
2021/05/28 02:51:51;;;;;;;6.22;4.50;;;;;;;17.28;99.40;98836.81;1889947;76;22120;-64
2021/05/28 02:54:27;;;;;;;7.65;4.37;;;;;;;17.24;98.96;98838.20;1870621;76;22160;-62
2021/05/28 02:57:03;;;;;;;8.23;4.55;;;;;;;17.19;98.78;98833.06;1889877;76;22583;-65
2021/05/28 02:59:48;;;;;;;6.08;4.25;;;;;;;17.13;98.78;98834.03;1791417;80;21150;-65
2021/05/28 03:02:23;;;;;;;7.30;4.65;;;;;;;17.23;98.87;98837.80;1870606;76;22552;-64
2021/05/28 03:05:06;;;;;;;9.73;5.55;;;;;;;17.29;98.95;98835.91;1889843;76;22216;-60
2021/05/28 03:07:41;;;;;;;8.05;5.62;;;;;;;17.33;98.62;98835.43;1853383;76;22148;-61
2021/05/28 03:10:17;;;;;;;8.93;6.15;;;;;;;17.33;98.57;98837.59;1859952;76;22238;-60
2021/05/28 03:12:52;;;;;;;10.58;6.90;;;;;;;17.34;98.63;98831.92;1836043;76;27998;-61
2021/05/28 03:15:27;;;;;;;7.53;6.12;;;;;;;17.43;98.81;98825.23;1836883;76;27915;-66
2021/05/28 03:18:03;;;;;;;10.00;6.05;;;;;;;17.55;98.73;98828.92;1853714;76;22125;-61
2021/05/28 03:20:41;;;;;;;10.68;6.30;;;;;;;17.56;98.47;98831.94;1849650;76;22140;-61
2021/05/28 03:23:17;;;;;;;7.80;5.42;;;;;;;17.54;98.45;98833.71;1849246;76;22167;-64
2021/05/28 03:25:58;;;;;;;7.40;5.53;;;;;;;17.49;98.26;98832.09;1869412;76;22170;-64
2021/05/28 03:28:33;;;;;;;8.35;4.90;;;;;;;17.46;97.87;98825.63;1835433;76;28048;-63
2021/05/28 03:31:07;;;;;;;8.70;5.20;;;;;;;17.52;97.47;98826.34;1852260;76;22160;-63
2021/05/28 03:33:50;;;;;;;9.93;5.90;;;;;;;17.48;96.95;98819.49;1867528;76;22645;-63
2021/05/28 03:36:25;;;;;;;8.93;5.70;;;;;;;17.44;96.79;98833.47;1856270;76;22593;-61
2021/05/28 03:39:11;;;;;;;8.83;5.33;;;;;;;17.36;96.53;98832.31;1824711;78;21117;-62
2021/05/28 03:41:46;;;;;;;7.45;4.37;;;;;;;17.35;95.70;98831.02;1856073;76;22162;-62
2021/05/28 03:44:22;;;;;;;8.00;4.90;;;;;;;17.31;95.05;98831.98;1843018;76;28051;-61
2021/05/28 03:46:56;;;;;;;6.03;4.70;;;;;;;17.41;94.98;98834.84;1870748;76;22160;-65
2021/05/28 03:49:31;;;;;;;7.47;4.70;;;;;;;17.45;94.96;98835.63;1869781;76;22140;-65
2021/05/28 03:52:17;;;;;;;8.25;6.08;;;;;;;17.35;94.21;98838.84;1812786;78;21264;-61
2021/05/28 03:54:51;;;;;;;7.72;4.17;;;;;;;17.35;94.24;98839.73;1855250;76;22284;-66
2021/05/28 03:57:32;;;;;;;9.30;4.97;;;;;;;17.24;93.94;98840.80;1867718;76;22615;-59
2021/05/28 04:00:16;;;;;;;8.08;5.00;;;;;;;17.22;94.63;98844.73;1863235;76;22182;-62
2021/05/28 04:02:52;;;;;;;6.53;3.90;;;;;;;17.24;94.79;98847.33;1852955;76;22148;-64
2021/05/28 04:05:33;;;;;;;7.12;5.40;;;;;;;17.25;94.40;98847.73;1813664;77;22203;-64
2021/05/28 04:08:08;;;;;;;7.85;4.80;;;;;;;17.22;93.93;98849.09;1850007;76;27993;-61
2021/05/28 04:10:44;;;;;;;9.30;6.12;;;;;;;17.24;93.65;98847.33;1847334;76;28366;-62
2021/05/28 04:13:19;;;;;;;5.97;4.80;;;;;;;17.26;93.87;98851.63;1870576;76;22161;-59
2021/05/28 04:15:54;;;;;;;7.60;4.50;;;;;;;17.15;93.69;98849.66;1870519;76;22570;-63
2021/05/28 04:18:29;;;;;;;7.70;5.33;;;;;;;17.01;93.10;98859.01;1873872;76;27894;-63
2021/05/28 04:21:05;;;;;;;7.20;4.53;;;;;;;16.97;92.99;98856.05;1854629;76;27929;-62
2021/05/28 04:23:51;;;;;;;5.85;3.15;;;;;;;16.93;92.59;98856.98;1827704;77;21285;-61
2021/05/28 04:26:27;;;;;;;4.45;2.95;;;;;;;16.93;90.70;98858.28;1843632;76;27906;-62
2021/05/28 04:29:04;;;;;;;4.78;2.65;;;;;;;17.03;89.26;98862.91;1846305;76;28357;-61
2021/05/28 04:31:49;;;;;;;6.95;4.28;;;;;;;17.09;87.42;98861.03;1822498;78;21237;-64
2021/05/28 04:34:24;;;;;;;8.30;5.53;;;;;;;17.20;87.29;98857.37;1870183;76;22587;-63
2021/05/28 04:37:19;;;;;;;7.42;6.10;;;;;;;17.17;88.45;98851.77;1844164;77;22211;-61
2021/05/28 04:39:54;;;;;;;13.58;6.85;;;;;;;17.12;89.73;98847.97;1888617;76;22192;-63
2021/05/28 04:42:29;;;;;;;9.05;6.90;;;;;;;17.14;90.42;98847.47;1854266;76;28369;-64
2021/05/28 04:45:06;;;;;;;9.10;6.83;;;;;;;17.21;90.68;98850.84;1859404;76;22200;-62
2021/05/28 04:47:41;;;;;;;11.18;7.12;;;;;;;17.21;91.31;98849.99;1856066;76;22597;-64
2021/05/28 04:50:16;;;;;;;10.85;7.60;;;;;;;17.17;92.05;98845.70;1870133;76;22156;-65
2021/05/28 04:52:50;;;;;;;11.55;7.62;;;;;;;17.11;92.75;98851.45;1889448;76;22578;-62
2021/05/28 04:55:26;;;;;;;10.25;7.50;;;;;;;17.07;93.05;98847.19;1870254;76;22141;-62
2021/05/28 04:58:13;;;;;;;12.58;9.05;;;;;;;16.98;93.11;98846.03;1827232;78;21162;-64
2021/05/28 05:00:49;;;;;;;10.40;8.38;;;;;;;17.00;93.38;98847.32;1839382;76;27920;-61
2021/05/28 05:03:23;;;;;;;13.13;7.95;;;;;;;17.06;93.69;98840.23;1846374;76;22586;-61
2021/05/28 05:05:58;;;;;;;11.80;8.28;;;;;;;17.12;93.65;98853.19;1857547;76;22275;-61
2021/05/28 05:08:33;;;;;;;11.15;7.83;;;;;;;17.18;93.86;98842.23;1875972;76;22178;-64
2021/05/28 05:11:19;;;;;;;11.18;8.60;;;;;;;17.19;93.76;98846.55;1831630;77;21150;-63
2021/05/28 05:13:53;;;;;;;12.73;9.23;;;;;;;17.35;93.97;98853.20;1870233;76;22123;-63
2021/05/28 05:16:28;;;;;;;11.80;8.88;;;;;;;17.44;94.08;98851.73;1858952;76;22156;-61
2021/05/28 05:19:10;;;;;;;9.55;8.05;;;;;;;17.53;94.10;98854.18;1858657;76;22629;-60
2021/05/28 05:21:53;;;;;;;12.07;8.25;;;;;;;17.62;94.27;98854.44;1867848;76;22631;-61
2021/05/28 05:24:28;;;;;;;13.15;9.25;;;;;;;17.69;94.92;98861.72;1850943;76;22204;-66
2021/05/28 05:27:04;;;;;;;17.92;9.53;;;;;;;17.77;95.15;98858.50;1839564;76;22175;-64
2021/05/28 05:29:39;;;;;;;12.15;9.10;;;;;;;17.86;95.14;98858.78;1850833;76;22155;-63
2021/05/28 05:32:15;;;;;;;13.30;8.70;;;;;;;17.86;95.15;98851.84;1870555;76;22612;-64
2021/05/28 05:34:57;;;;;;;12.13;8.75;;;;;;;17.87;94.81;98859.22;1890000;76;22191;-59
2021/05/28 05:37:32;;;;;;;11.33;8.83;;;;;;;17.85;94.26;98861.84;1854607;76;27891;-61
2021/05/28 05:40:10;;;;;;;12.55;9.73;;;;;;;17.87;93.92;98865.74;1854544;76;27897;-63
2021/05/28 05:42:55;;;;;;;14.45;10.25;;;;;;;17.90;93.10;98863.91;1815058;78;21169;-62
2021/05/28 05:45:36;;;;;;;13.62;8.83;;;;;;;18.00;92.92;98866.75;1869447;76;22140;-62
2021/05/28 05:48:11;;;;;;;12.13;8.75;;;;;;;18.05;92.46;98868.42;1827347;76;28032;-61
2021/05/28 05:50:46;;;;;;;10.08;7.85;;;;;;;18.20;92.70;98867.64;1843384;76;22192;-63
2021/05/28 05:53:20;;;;;;;12.18;8.30;;;;;;;18.25;91.81;98858.86;1889731;76;22302;-61
2021/05/28 05:55:55;;;;;;;14.25;8.95;;;;;;;18.32;91.44;98860.00;1870455;76;22128;-64
2021/05/28 16:46:15;;;;;;;17.77;12.63;;;;;;;20.63;74.83;98561.55;1815966;77;22216;-62
2021/05/28 16:48:50;;;;;;;15.80;13.20;;;;;;;20.60;74.86;98552.87;1865375;76;22551;-62
2021/05/28 16:51:25;;;;;;;16.25;12.78;;;;;;;20.58;74.88;98553.41;1845534;76;22238;-62
2021/05/28 16:54:13;;;;;;;15.15;12.80;;;;;;;20.51;74.70;98549.27;1826489;77;21110;-61
2021/05/28 16:56:47;;;;;;;14.45;11.48;;;;;;;20.53;74.62;98546.14;1855497;76;22254;-61
2021/05/28 16:59:24;;;;;;;14.47;12.90;;;;;;;20.51;74.70;98559.75;1858392;76;22610;-61
2021/05/28 17:01:57;;;;;;;19.07;13.00;;;;;;;20.52;74.77;98563.22;1853684;76;22163;-62
2021/05/28 17:04:38;;;;;;;15.53;13.13;;;;;;;20.52;74.56;98565.38;1869646;76;22161;-63
2021/05/28 17:07:14;;;;;;;15.90;13.70;;;;;;;20.49;74.46;98562.88;1854526;76;27952;-63
2021/05/28 17:09:59;;;;;;;19.42;13.68;;;;;;;20.46;74.08;98560.83;1760230;81;21275;-61
2021/05/28 17:12:34;;;;;;;13.98;12.07;;;;;;;20.50;74.04;98558.02;1870552;76;22143;-61
2021/05/28 17:15:12;;;;;;;17.87;13.48;;;;;;;20.46;74.11;98552.50;1870464;76;22140;-61
2021/05/28 17:17:47;;;;;;;15.48;13.05;;;;;;;20.44;74.23;98550.39;1889814;76;22151;-60
2021/05/28 17:20:23;;;;;;;19.52;12.63;;;;;;;20.41;74.32;98548.34;1870548;76;22148;-62
2021/05/28 17:22:57;;;;;;;22.37;13.30;;;;;;;20.39;74.47;98554.94;1870607;76;22572;-61
2021/05/28 17:25:33;;;;;;;22.37;13.50;;;;;;;20.34;74.84;98545.07;1889891;76;22135;-61
2021/05/28 17:28:09;;;;;;;20.50;13.00;;;;;;;20.40;74.83;98546.15;1870609;76;22559;-63
2021/05/28 17:30:43;;;;;;;20.37;13.60;;;;;;;20.39;74.88;98543.14;1870580;76;22132;-63
2021/05/28 17:33:18;;;;;;;16.90;13.22;;;;;;;20.37;74.81;98546.27;1889872;76;22155;-63
2021/05/28 17:36:05;;;;;;;16.93;12.60;;;;;;;20.32;74.95;98546.88;1861344;77;21592;-61
2021/05/28 17:38:39;;;;;;;18.05;14.23;;;;;;;20.32;75.00;98546.42;1873932;76;27952;-61
2021/05/28 17:41:20;;;;;;;16.87;11.95;;;;;;;20.34;75.50;98554.24;1869689;76;22205;-61
2021/05/28 17:43:54;;;;;;;14.18;11.53;;;;;;;20.27;75.79;98573.70;1889897;76;22112;-62
2021/05/28 17:46:33;;;;;;;14.75;12.70;;;;;;;20.35;75.83;98575.59;1870437;76;22172;-62
2021/05/28 17:49:09;;;;;;;16.97;13.80;;;;;;;20.36;76.30;98588.66;1870482;76;22167;-61
2021/05/28 17:51:56;;;;;;;15.53;13.22;;;;;;;20.34;76.54;98605.34;1760282;81;21207;-61
2021/05/28 17:54:31;;;;;;;11.35;9.18;;;;;;;20.30;77.64;98601.98;1873812;76;28341;-60
2021/05/28 17:57:08;;;;;;;11.88;7.28;;;;;;;20.14;77.46;98606.87;1873827;76;27907;-62
2021/05/28 17:59:43;;;;;;;9.65;6.83;;;;;;;19.92;77.84;98629.44;1854668;76;38227;-63
2021/05/28 18:02:18;;;;;;;10.20;5.58;;;;;;;19.68;78.56;98635.02;1870571;76;22558;-61
2021/05/28 18:04:53;;;;;;;7.10;4.30;;;;;;;19.33;79.97;98619.05;1870630;76;22124;-62
2021/05/28 18:07:28;;;;;;;8.55;4.85;;;;;;;18.99;81.07;98606.97;1870574;76;22571;-62
2021/05/28 18:10:14;;;;;;;7.45;3.75;;;;;;;18.74;82.47;98601.08;1869768;76;22575;-62
2021/05/28 18:12:51;;;;;;;7.42;4.12;;;;;;;18.49;83.63;98605.27;1870481;76;22144;-62
2021/05/28 18:15:38;;;;;;;9.08;3.83;;;;;;;18.22;84.56;98603.80;1827839;78;21288;-61
2021/05/28 18:18:15;;;;;;;6.17;3.05;;;;;;;18.17;85.44;98613.52;1854779;76;28312;-62
2021/05/28 18:20:50;;;;;;;7.95;3.20;;;;;;;18.09;86.14;98612.83;1870499;76;22151;-62
2021/05/28 18:23:25;;;;;;;6.60;3.35;;;;;;;17.77;87.28;98605.31;1870577;76;22190;-62
2021/05/28 18:26:00;;;;;;;7.30;2.58;;;;;;;17.58;88.01;98597.08;1870520;76;22124;-61
2021/05/28 18:28:35;;;;;;;6.47;2.40;;;;;;;17.50;88.23;98586.82;1853692;76;22207;-61
2021/05/28 18:31:10;;;;;;;5.65;2.70;;;;;;;17.39;88.62;98595.31;1851722;76;28411;-62
2021/05/28 18:33:45;;;;;;;5.17;2.58;;;;;;;17.46;89.00;98590.37;1856640;76;22128;-64
2021/05/28 18:36:20;;;;;;;4.42;2.58;;;;;;;17.34;89.32;98593.26;1889897;76;22558;-61
2021/05/28 18:38:54;;;;;;;12.18;2.87;;;;;;;16.90;90.57;98595.08;1835045;77;22180;-61
2021/05/28 18:41:30;;;;;;;3.92;2.08;;;;;;;16.52;92.58;98589.29;1889888;76;22172;-61
2021/05/28 18:44:06;;;;;;;8.28;3.05;;;;;;;16.25;94.09;98587.14;1889916;76;20754;-62
2021/05/28 18:46:44;;;;;;;5.70;2.95;;;;;;;16.10;94.91;98590.02;1890090;76;22575;-62
2021/05/28 18:49:17;;;;;;;8.83;3.90;;;;;;;16.01;95.68;98591.05;1855826;76;22182;-62
2021/05/28 18:51:52;;;;;;;5.47;2.85;;;;;;;15.96;96.50;98586.37;1863758;76;22153;-61
2021/05/28 18:54:26;;;;;;;4.10;2.58;;;;;;;15.97;96.93;98593.28;1870549;76;22160;-62
2021/05/28 18:57:03;;;;;;;5.40;2.85;;;;;;;15.94;97.52;98592.48;1873796;76;28324;-62
2021/05/28 18:59:40;;;;;;;5.17;2.40;;;;;;;15.96;97.85;98584.22;1870564;76;22160;-61
2021/05/28 19:02:26;;;;;;;7.62;2.90;;;;;;;15.88;97.96;98588.70;1827492;78;21300;-62
2021/05/28 19:05:00;;;;;;;2.55;1.47;;;;;;;15.92;98.22;98574.73;1870759;76;22120;-60
2021/05/28 19:07:36;;;;;;;7.75;3.85;;;;;;;15.98;98.23;98581.16;1870560;76;22181;-61
2021/05/28 19:10:18;;;;;;;8.68;3.50;;;;;;;16.08;98.55;98571.00;1869783;76;22571;-61
2021/05/28 19:12:53;;;;;;;7.78;3.40;;;;;;;16.18;98.70;98571.66;1854708;76;28347;-62
2021/05/28 19:15:28;;;;;;;8.80;4.00;;;;;;;16.27;98.60;98575.41;1890010;76;22139;-61
2021/05/28 19:18:09;;;;;;;6.90;3.95;;;;;;;16.32;98.96;98574.03;1889905;76;22133;-61
2021/05/28 19:20:46;;;;;;;9.13;3.45;;;;;;;16.33;99.00;98570.53;1854902;76;28364;-61
2021/05/28 19:23:21;;;;;;;5.67;2.87;;;;;;;16.38;98.83;98564.34;1889854;76;22666;-63
2021/05/28 19:25:56;;;;;;;7.70;3.25;;;;;;;16.41;98.54;98569.94;1870567;76;22121;-61
2021/05/28 19:28:51;;;;;;;5.22;2.80;;;;;;;16.40;98.43;98566.48;1872012;75;22189;-62
2021/05/28 19:31:27;;;;;;;5.72;3.30;;;;;;;16.40;98.32;98564.33;1870492;76;22160;-60
2021/05/28 19:34:02;;;;;;;5.70;3.12;;;;;;;16.37;98.36;98564.39;1870581;76;22160;-60
2021/05/28 19:36:37;;;;;;;5.53;2.80;;;;;;;16.35;98.16;98557.05;1889840;76;22151;-61
2021/05/28 19:39:12;;;;;;;5.53;2.87;;;;;;;16.33;98.07;98558.81;1873795;76;28317;-60
2021/05/28 19:41:49;;;;;;;6.08;3.20;;;;;;;16.41;98.11;98555.61;1870480;76;22132;-62
2021/05/28 19:44:35;;;;;;;11.57;2.92;;;;;;;16.39;97.89;98553.51;1827716;78;21126;-60
2021/05/28 19:47:10;;;;;;;7.22;3.60;;;;;;;16.42;97.79;98543.88;1850872;77;22565;-60
2021/05/28 19:49:45;;;;;;;6.92;3.10;;;;;;;16.46;97.80;98547.27;1870547;76;22152;-61
2021/05/28 19:52:26;;;;;;;6.53;3.08;;;;;;;16.49;97.79;98548.08;1870514;76;22173;-60
2021/05/28 19:57:49;;;;;;;5.70;3.10;;;;;;;16.53;97.36;98543.66;1866048;76;22935;-60
2021/05/28 20:00:35;;;;;;;5.78;2.95;;;;;;;16.47;97.12;98539.88;1823431;78;21118;-59
2021/05/28 20:03:11;;;;;;;6.90;2.95;;;;;;;16.50;96.93;98533.30;1870608;76;22120;-62
2021/05/28 20:05:47;;;;;;;6.70;3.22;;;;;;;16.48;96.79;98535.08;1854697;76;30532;-60
2021/05/28 20:08:23;;;;;;;5.95;2.92;;;;;;;16.54;96.73;98519.34;1870612;76;22117;-61
2021/05/28 20:16:50;;;;;;;6.72;4.03;;;;;;;16.52;96.01;98510.70;1870402;76;22217;-61
2021/05/28 20:19:27;;;;;;;6.30;3.33;;;;;;;16.46;96.19;98505.17;1848931;76;20113;-60
2021/05/28 20:22:03;;;;;;;7.40;3.70;;;;;;;16.43;96.14;98510.87;1847969;76;22253;-60
2021/05/28 20:24:39;;;;;;;8.85;4.00;;;;;;;16.40;96.14;98510.94;1857296;76;22516;-60
2021/05/28 20:27:13;;;;;;;5.90;3.90;;;;;;;16.38;96.22;98509.65;1847967;76;28339;-60
2021/05/28 20:29:49;;;;;;;7.30;4.47;;;;;;;16.45;96.29;98507.80;1870615;76;22144;-61
2021/05/28 20:32:27;;;;;;;9.15;4.97;;;;;;;16.46;96.42;98516.01;1854630;76;27924;-60
2021/05/28 20:35:09;;;;;;;9.03;4.40;;;;;;;16.51;96.50;98503.75;1889831;76;22606;-60
2021/05/28 20:37:44;;;;;;;9.45;4.70;;;;;;;16.49;96.55;98506.86;1866757;76;22154;-61
2021/05/28 20:40:19;;;;;;;7.92;4.55;;;;;;;16.45;96.75;98506.05;1849237;76;22141;-61
2021/05/28 20:42:55;;;;;;;8.58;4.60;;;;;;;16.39;96.91;98516.59;1859649;76;22156;-60
2021/05/28 20:45:43;;;;;;;9.68;5.47;;;;;;;16.29;97.16;98517.66;1830734;78;21516;-60
2021/05/28 20:48:18;;;;;;;7.67;4.95;;;;;;;16.24;97.66;98516.89;1870542;76;22145;-60
2021/05/28 20:50:58;;;;;;;9.00;5.35;;;;;;;16.11;98.10;98516.27;1870601;76;22148;-61
2021/05/28 20:53:42;;;;;;;9.40;5.45;;;;;;;16.02;98.59;98513.83;1866958;76;22151;-61
2021/05/28 20:59:02;;;;;;;11.38;7.08;;;;;;;16.01;99.36;98512.12;1870420;76;22604;-62
2021/05/28 21:01:43;;;;;;;9.93;6.75;;;;;;;16.00;99.50;98509.97;1843312;76;22225;-62
2021/05/28 21:06:53;;;;;;;11.05;7.65;;;;;;;16.04;99.78;98502.50;1870527;76;22300;-61
2021/05/28 21:09:28;;;;;;;12.58;7.28;;;;;;;16.07;99.92;98502.88;1865943;76;22150;-61
2021/05/28 21:12:15;;;;;;;11.00;7.05;;;;;;;16.05;100.00;98505.95;1830965;78;21125;-61
2021/05/28 21:14:50;;;;;;;10.63;7.95;;;;;;;16.11;100.00;98507.16;1840585;76;27929;-61
2021/05/28 21:17:31;;;;;;;10.88;7.50;;;;;;;16.14;100.00;98503.64;1869757;76;22135;-60
2021/05/28 21:20:10;;;;;;;10.65;8.10;;;;;;;16.12;100.00;98504.10;1870518;76;22149;-61
2021/05/28 21:22:46;;;;;;;9.50;7.40;;;;;;;16.08;100.00;98498.11;1864879;76;22155;-61
2021/05/28 21:25:21;;;;;;;12.47;8.20;;;;;;;16.06;100.00;98510.29;1842380;76;28524;-59
2021/05/28 21:28:08;;;;;;;11.10;7.70;;;;;;;16.02;100.00;98502.96;1827599;78;21393;-61
2021/05/28 21:30:42;;;;;;;12.28;8.58;;;;;;;16.07;100.00;98504.19;1855460;76;22555;-60
2021/05/28 21:33:23;;;;;;;13.45;9.18;;;;;;;16.03;100.00;98499.94;1889965;76;22135;-59
2021/05/28 21:36:11;;;;;;;12.53;9.40;;;;;;;15.94;100.00;98493.59;1827565;78;21153;-60
2021/05/28 21:38:46;;;;;;;14.18;9.93;;;;;;;15.91;100.00;98488.00;1881053;76;22162;-61
2021/05/28 21:41:21;;;;;;;13.62;9.43;;;;;;;15.81;100.00;98479.95;1870589;76;22144;-61
2021/05/28 21:43:56;;;;;;;15.60;11.70;;;;;;;15.72;100.00;98482.28;1829254;76;28434;-64
2021/05/28 21:46:31;;;;;;;16.93;12.68;;;;;;;15.71;100.00;98480.99;1878007;76;22170;-61
2021/05/28 21:49:06;;;;;;;14.53;10.08;;;;;;;15.70;100.00;98489.66;1850040;76;22168;-61
2021/05/28 21:51:57;;;;;;;13.95;8.83;;;;;;;15.63;100.00;98491.50;1795519;78;21299;-61
2021/05/28 21:54:32;;;;;;;18.12;9.33;;;;;;;15.67;100.00;98503.55;1870355;76;22141;-62
2021/05/28 21:57:08;;;;;;;12.10;9.05;;;;;;;15.69;100.00;98508.33;1889906;76;20092;-61
2021/05/28 21:59:44;;;;;;;12.73;7.40;;;;;;;15.74;100.00;98509.10;1870608;76;22164;-58
2021/05/28 22:02:18;;;;;;;10.72;7.50;;;;;;;15.74;100.00;98506.50;1889846;76;22147;-60
2021/05/28 22:05:05;;;;;;;10.82;7.17;;;;;;;15.69;100.00;98508.33;1776895;80;21271;-60
2021/05/28 22:07:41;;;;;;;10.28;7.60;;;;;;;15.74;100.00;98507.80;1862736;76;22151;-59
2021/05/28 22:10:16;;;;;;;11.28;7.08;;;;;;;15.78;100.00;98505.58;1847262;76;27897;-59
2021/05/28 22:12:53;;;;;;;9.58;6.65;;;;;;;15.89;100.00;98507.13;1854507;76;28391;-61
2021/05/28 22:15:29;;;;;;;9.23;6.72;;;;;;;16.03;100.00;98511.66;1870501;76;20344;-59
2021/05/28 22:18:15;;;;;;;8.93;6.50;;;;;;;16.02;100.00;98505.56;1827623;78;21139;-61
2021/05/28 22:20:50;;;;;;;9.75;6.05;;;;;;;16.11;100.00;98503.25;1870573;76;22141;-60
2021/05/28 22:23:25;;;;;;;9.98;6.17;;;;;;;16.13;100.00;98493.67;1873813;76;27897;-59
2021/05/28 22:26:12;;;;;;;8.53;6.05;;;;;;;16.10;100.00;98496.31;1861372;77;21153;-62
2021/05/28 22:34:16;;;;;;;10.03;6.10;;;;;;;16.04;100.00;98480.82;1889844;76;22116;-61
2021/05/28 22:37:01;;;;;;;8.48;5.47;;;;;;;15.99;100.00;98486.11;1791643;80;21553;-61
2021/05/28 22:39:37;;;;;;;9.13;5.85;;;;;;;16.05;100.00;98490.33;1835042;77;22156;-60
2021/05/28 22:42:14;;;;;;;9.00;6.50;;;;;;;16.05;100.00;98483.83;1889845;76;22156;-60
2021/05/28 22:44:50;;;;;;;10.70;6.80;;;;;;;16.07;100.00;98493.77;1870601;76;22121;-60
2021/05/28 22:47:25;;;;;;;11.80;8.10;;;;;;;16.07;100.00;98491.17;1870732;76;20251;-61
2021/05/28 22:50:01;;;;;;;11.20;7.47;;;;;;;16.08;100.00;98500.71;1889874;76;22571;-61
2021/05/28 22:52:47;;;;;;;10.08;6.97;;;;;;;16.01;100.00;98498.66;1861359;77;21130;-61
2021/05/28 22:55:22;;;;;;;10.25;7.00;;;;;;;16.05;100.00;98502.05;1870538;76;22109;-59
2021/05/28 22:57:57;;;;;;;11.68;7.30;;;;;;;16.07;100.00;98501.58;1870513;76;22140;-59
2021/05/28 23:00:32;;;;;;;12.98;8.48;;;;;;;16.12;100.00;98508.86;1870706;76;22155;-62
2021/05/28 23:03:06;;;;;;;10.90;8.00;;;;;;;16.13;100.00;98510.59;1835041;77;22134;-61
2021/05/28 23:05:41;;;;;;;13.72;8.28;;;;;;;16.14;100.00;98512.75;1870536;76;22539;-60
2021/05/28 23:08:19;;;;;;;12.50;9.93;;;;;;;16.15;100.00;98516.61;1854467;76;28349;-61
2021/05/28 23:10:56;;;;;;;14.38;9.63;;;;;;;16.24;100.00;98515.14;1889861;76;22111;-61
2021/05/28 23:13:32;;;;;;;11.97;9.35;;;;;;;16.26;100.00;98517.28;1889867;76;22168;-60
2021/05/28 23:16:06;;;;;;;14.25;10.40;;;;;;;16.23;100.00;98519.06;1870618;76;22576;-61
2021/05/28 23:18:41;;;;;;;18.70;11.00;;;;;;;16.22;100.00;98519.52;1889879;76;22116;-60
2021/05/28 23:21:19;;;;;;;14.83;11.57;;;;;;;16.23;100.00;98521.25;1855879;76;22557;-60